Gaither, Maryland
Current Conditions -  °F | °C
As of 8:05 PM on Wednesday 17 Dec 2014 (Local Time) from KDMW Reporting Station
Broken Clouds Broken Clouds  
Wind Chill: 31°   Ceiling: 4100
Heat Index: 36°   Visibility: 10mi
Dew Point: 27°   Wind: 6mph
Humidity: 70%   Direction: 240°WSW
Pressure: 30.02"   Gusts: NA
Location:  39.3995°N, 76.9748°W
Report Text: KDMW 180105Z AUTO 24005KT 10SM BKN041 02/M03 A3002 RMK AO2
Loading
Personal Weather Stations






























Interactive Weather Map New forecast layout! Learn more

10-Day Weather Forecast

Advertisements
Track Severe Weather on mobile